sensor_id;sensor_type;location;lat;lon;timestamp;P1;durP1;ratioP1;P2;durP2;ratioP2
31716;SDS011;18301;51.076;17.046;2024-01-10T00:00:46;189.57;;;60.45;;
31716;SDS011;18301;51.076;17.046;2024-01-10T00:05:48;185.75;;;58.63;;
31716;SDS011;18301;51.076;17.046;2024-01-10T00:10:51;191.65;;;59.92;;
31716;SDS011;18301;51.076;17.046;2024-01-10T00:15:55;188.98;;;60.15;;
31716;SDS011;18301;51.076;17.046;2024-01-10T00:20:57;208.98;;;66.47;;
31716;SDS011;18301;51.076;17.046;2024-01-10T00:25:59;206.00;;;65.22;;
31716;SDS011;18301;51.076;17.046;2024-01-10T00:31:01;275.25;;;80.22;;
31716;SDS011;18301;51.076;17.046;2024-01-10T00:36:03;181.50;;;58.60;;
31716;SDS011;18301;51.076;17.046;2024-01-10T00:41:05;199.43;;;61.22;;
31716;SDS011;18301;51.076;17.046;2024-01-10T00:46:06;225.25;;;70.88;;
31716;SDS011;18301;51.076;17.046;2024-01-10T00:51:08;217.85;;;70.25;;
31716;SDS011;18301;51.076;17.046;2024-01-10T00:56:11;210.77;;;68.50;;
31716;SDS011;18301;51.076;17.046;2024-01-10T01:01:13;236.05;;;72.57;;
31716;SDS011;18301;51.076;17.046;2024-01-10T01:06:15;212.77;;;67.88;;
31716;SDS011;18301;51.076;17.046;2024-01-10T01:11:16;195.07;;;64.30;;
31716;SDS011;18301;51.076;17.046;2024-01-10T01:16:18;210.73;;;62.83;;
31716;SDS011;18301;51.076;17.046;2024-01-10T01:21:20;188.30;;;62.20;;
31716;SDS011;18301;51.076;17.046;2024-01-10T01:26:22;187.40;;;60.50;;
31716;SDS011;18301;51.076;17.046;2024-01-10T01:31:24;193.57;;;60.30;;
31716;SDS011;18301;51.076;17.046;2024-01-10T01:36:25;181.38;;;58.72;;
31716;SDS011;18301;51.076;17.046;2024-01-10T01:41:27;187.15;;;58.55;;
31716;SDS011;18301;51.076;17.046;2024-01-10T01:46:29;178.65;;;54.38;;
31716;SDS011;18301;51.076;17.046;2024-01-10T01:51:31;187.90;;;57.60;;
31716;SDS011;18301;51.076;17.046;2024-01-10T01:56:36;180.85;;;57.45;;
31716;SDS011;18301;51.076;17.046;2024-01-10T02:01:39;180.02;;;58.53;;
31716;SDS011;18301;51.076;17.046;2024-01-10T02:06:42;174.65;;;56.33;;
31716;SDS011;18301;51.076;17.046;2024-01-10T02:11:43;180.52;;;57.08;;
31716;SDS011;18301;51.076;17.046;2024-01-10T02:16:45;182.35;;;59.53;;
31716;SDS011;18301;51.076;17.046;2024-01-10T02:21:47;197.55;;;59.90;;
31716;SDS011;18301;51.076;17.046;2024-01-10T02:26:49;180.73;;;61.53;;
31716;SDS011;18301;51.076;17.046;2024-01-10T02:31:51;178.95;;;58.60;;
31716;SDS011;18301;51.076;17.046;2024-01-10T02:36:53;170.98;;;56.45;;
31716;SDS011;18301;51.076;17.046;2024-01-10T02:41:55;152.88;;;53.90;;
31716;SDS011;18301;51.076;17.046;2024-01-10T02:46:56;184.27;;;58.00;;
31716;SDS011;18301;51.076;17.046;2024-01-10T02:51:58;177.05;;;58.05;;
31716;SDS011;18301;51.076;17.046;2024-01-10T02:57:01;168.25;;;56.47;;
31716;SDS011;18301;51.076;17.046;2024-01-10T03:02:03;171.88;;;57.55;;
31716;SDS011;18301;51.076;17.046;2024-01-10T03:07:05;175.93;;;58.35;;
31716;SDS011;18301;51.076;17.046;2024-01-10T03:12:07;191.75;;;58.80;;
31716;SDS011;18301;51.076;17.046;2024-01-10T03:17:08;182.10;;;59.97;;
31716;SDS011;18301;51.076;17.046;2024-01-10T03:22:10;172.70;;;58.03;;
31716;SDS011;18301;51.076;17.046;2024-01-10T03:27:13;426.60;;;104.50;;
31716;SDS011;18301;51.076;17.046;2024-01-10T03:32:14;201.93;;;61.83;;
31716;SDS011;18301;51.076;17.046;2024-01-10T03:37:16;198.25;;;61.03;;
31716;SDS011;18301;51.076;17.046;2024-01-10T03:42:18;273.65;;;80.47;;
31716;SDS011;18301;51.076;17.046;2024-01-10T03:47:20;243.93;;;72.85;;
31716;SDS011;18301;51.076;17.046;2024-01-10T03:52:22;219.23;;;67.75;;
31716;SDS011;18301;51.076;17.046;2024-01-10T03:57:23;209.43;;;63.78;;
31716;SDS011;18301;51.076;17.046;2024-01-10T04:02:25;202.07;;;63.65;;
31716;SDS011;18301;51.076;17.046;2024-01-10T04:07:27;205.27;;;63.90;;
31716;SDS011;18301;51.076;17.046;2024-01-10T04:12:29;203.18;;;66.20;;
31716;SDS011;18301;51.076;17.046;2024-01-10T04:17:31;213.05;;;69.97;;
31716;SDS011;18301;51.076;17.046;2024-01-10T04:22:33;204.70;;;65.63;;
31716;SDS011;18301;51.076;17.046;2024-01-10T04:27:34;203.95;;;66.72;;
31716;SDS011;18301;51.076;17.046;2024-01-10T04:32:36;203.68;;;63.45;;
31716;SDS011;18301;51.076;17.046;2024-01-10T04:37:38;205.20;;;64.03;;
31716;SDS011;18301;51.076;17.046;2024-01-10T04:42:40;198.18;;;61.97;;
31716;SDS011;18301;51.076;17.046;2024-01-10T04:47:41;206.88;;;63.55;;
31716;SDS011;18301;51.076;17.046;2024-01-10T04:52:43;213.38;;;65.45;;
31716;SDS011;18301;51.076;17.046;2024-01-10T04:57:45;206.43;;;66.55;;
31716;SDS011;18301;51.076;17.046;2024-01-10T05:02:46;208.05;;;64.78;;
31716;SDS011;18301;51.076;17.046;2024-01-10T05:07:50;215.85;;;66.45;;
31716;SDS011;18301;51.076;17.046;2024-01-10T05:12:55;185.90;;;62.88;;
31716;SDS011;18301;51.076;17.046;2024-01-10T05:17:56;203.25;;;64.53;;
31716;SDS011;18301;51.076;17.046;2024-01-10T05:22:58;214.32;;;65.22;;
31716;SDS011;18301;51.076;17.046;2024-01-10T05:28:00;193.18;;;60.83;;
31716;SDS011;18301;51.076;17.046;2024-01-10T05:33:01;189.57;;;58.53;;
31716;SDS011;18301;51.076;17.046;2024-01-10T05:38:05;191.90;;;58.90;;
31716;SDS011;18301;51.076;17.046;2024-01-10T05:43:07;187.75;;;61.42;;
31716;SDS011;18301;51.076;17.046;2024-01-10T05:48:09;186.80;;;59.92;;
31716;SDS011;18301;51.076;17.046;2024-01-10T05:53:11;178.02;;;59.30;;
31716;SDS011;18301;51.076;17.046;2024-01-10T05:58:15;175.98;;;57.65;;
31716;SDS011;18301;51.076;17.046;2024-01-10T06:03:16;197.93;;;64.60;;
31716;SDS011;18301;51.076;17.046;2024-01-10T06:08:18;198.93;;;65.53;;
31716;SDS011;18301;51.076;17.046;2024-01-10T06:13:20;194.95;;;62.88;;
31716;SDS011;18301;51.076;17.046;2024-01-10T06:18:22;223.90;;;74.13;;
31716;SDS011;18301;51.076;17.046;2024-01-10T06:23:24;253.88;;;85.47;;
31716;SDS011;18301;51.076;17.046;2024-01-10T06:28:25;229.32;;;70.78;;
31716;SDS011;18301;51.076;17.046;2024-01-10T06:33:27;201.48;;;63.38;;
31716;SDS011;18301;51.076;17.046;2024-01-10T06:38:29;189.90;;;62.03;;
31716;SDS011;18301;51.076;17.046;2024-01-10T06:43:30;202.00;;;67.75;;
31716;SDS011;18301;51.076;17.046;2024-01-10T06:48:32;215.00;;;72.57;;
31716;SDS011;18301;51.076;17.046;2024-01-10T06:53:34;215.98;;;71.38;;
31716;SDS011;18301;51.076;17.046;2024-01-10T06:58:36;190.77;;;62.13;;
31716;SDS011;18301;51.076;17.046;2024-01-10T07:03:37;198.70;;;65.90;;
31716;SDS011;18301;51.076;17.046;2024-01-10T07:08:39;171.10;;;54.33;;
31716;SDS011;18301;51.076;17.046;2024-01-10T07:13:41;199.60;;;62.03;;
31716;SDS011;18301;51.076;17.046;2024-01-10T07:18:43;197.70;;;63.15;;
31716;SDS011;18301;51.076;17.046;2024-01-10T07:23:46;182.20;;;60.53;;
31716;SDS011;18301;51.076;17.046;2024-01-10T07:28:48;176.90;;;58.67;;
31716;SDS011;18301;51.076;17.046;2024-01-10T07:33:50;185.75;;;60.17;;
31716;SDS011;18301;51.076;17.046;2024-01-10T07:38:52;196.75;;;64.25;;
31716;SDS011;18301;51.076;17.046;2024-01-10T07:43:54;194.40;;;64.35;;
31716;SDS011;18301;51.076;17.046;2024-01-10T07:48:56;163.18;;;51.53;;
31716;SDS011;18301;51.076;17.046;2024-01-10T07:53:58;216.43;;;68.38;;
31716;SDS011;18301;51.076;17.046;2024-01-10T07:59:01;199.60;;;66.30;;
31716;SDS011;18301;51.076;17.046;2024-01-10T08:04:06;202.07;;;65.28;;
31716;SDS011;18301;51.076;17.046;2024-01-10T08:09:09;196.18;;;67.28;;
31716;SDS011;18301;51.076;17.046;2024-01-10T08:14:13;203.10;;;66.32;;
31716;SDS011;18301;51.076;17.046;2024-01-10T08:19:16;197.35;;;66.10;;
31716;SDS011;18301;51.076;17.046;2024-01-10T08:24:19;200.68;;;67.65;;
31716;SDS011;18301;51.076;17.046;2024-01-10T08:29:21;205.95;;;66.30;;
31716;SDS011;18301;51.076;17.046;2024-01-10T08:34:23;210.77;;;67.53;;
31716;SDS011;18301;51.076;17.046;2024-01-10T08:39:25;197.13;;;64.78;;
31716;SDS011;18301;51.076;17.046;2024-01-10T08:44:29;202.93;;;64.15;;
31716;SDS011;18301;51.076;17.046;2024-01-10T08:49:31;223.95;;;70.65;;
31716;SDS011;18301;51.076;17.046;2024-01-10T08:54:33;199.25;;;65.85;;
31716;SDS011;18301;51.076;17.046;2024-01-10T08:59:35;195.65;;;65.38;;
31716;SDS011;18301;51.076;17.046;2024-01-10T09:04:36;202.80;;;68.40;;
31716;SDS011;18301;51.076;17.046;2024-01-10T09:09:38;189.00;;;66.50;;
31716;SDS011;18301;51.076;17.046;2024-01-10T09:14:40;213.82;;;69.03;;
31716;SDS011;18301;51.076;17.046;2024-01-10T09:19:42;208.43;;;69.63;;
31716;SDS011;18301;51.076;17.046;2024-01-10T09:24:44;213.50;;;70.35;;
31716;SDS011;18301;51.076;17.046;2024-01-10T09:29:46;188.95;;;62.50;;
31716;SDS011;18301;51.076;17.046;2024-01-10T09:34:47;196.18;;;66.88;;
31716;SDS011;18301;51.076;17.046;2024-01-10T09:39:49;220.55;;;72.25;;
31716;SDS011;18301;51.076;17.046;2024-01-10T09:44:51;197.63;;;70.00;;
31716;SDS011;18301;51.076;17.046;2024-01-10T09:49:53;214.88;;;69.40;;
31716;SDS011;18301;51.076;17.046;2024-01-10T09:54:55;207.85;;;72.22;;
31716;SDS011;18301;51.076;17.046;2024-01-10T09:59:58;206.73;;;70.25;;
31716;SDS011;18301;51.076;17.046;2024-01-10T10:05:04;195.73;;;67.68;;
31716;SDS011;18301;51.076;17.046;2024-01-10T10:10:10;178.82;;;64.40;;
31716;SDS011;18301;51.076;17.046;2024-01-10T10:15:16;205.35;;;70.80;;
31716;SDS011;18301;51.076;17.046;2024-01-10T10:20:21;200.70;;;68.05;;
31716;SDS011;18301;51.076;17.046;2024-01-10T10:25:25;188.55;;;65.47;;
31716;SDS011;18301;51.076;17.046;2024-01-10T10:30:28;202.45;;;66.15;;
31716;SDS011;18301;51.076;17.046;2024-01-10T10:35:32;158.18;;;51.72;;
31716;SDS011;18301;51.076;17.046;2024-01-10T10:40:41;184.02;;;59.67;;
31716;SDS011;18301;51.076;17.046;2024-01-10T10:45:45;192.43;;;64.25;;
31716;SDS011;18301;51.076;17.046;2024-01-10T10:50:50;170.43;;;57.97;;
31716;SDS011;18301;51.076;17.046;2024-01-10T10:56:00;171.57;;;60.58;;
31716;SDS011;18301;51.076;17.046;2024-01-10T11:01:04;164.95;;;58.97;;
31716;SDS011;18301;51.076;17.046;2024-01-10T11:06:07;180.98;;;60.65;;
31716;SDS011;18301;51.076;17.046;2024-01-10T11:27:36;171.65;;;57.45;;
31716;SDS011;18301;51.076;17.046;2024-01-10T11:32:38;167.18;;;61.63;;
31716;SDS011;18301;51.076;17.046;2024-01-10T11:37:43;162.75;;;57.38;;
31716;SDS011;18301;51.076;17.046;2024-01-10T11:42:46;138.68;;;48.00;;
31716;SDS011;18301;51.076;17.046;2024-01-10T11:47:49;166.60;;;59.30;;
31716;SDS011;18301;51.076;17.046;2024-01-10T11:52:53;168.73;;;57.15;;
31716;SDS011;18301;51.076;17.046;2024-01-10T11:58:10;162.43;;;55.60;;
31716;SDS011;18301;51.076;17.046;2024-01-10T12:03:12;151.95;;;54.92;;
31716;SDS011;18301;51.076;17.046;2024-01-10T12:08:15;144.10;;;52.65;;
31716;SDS011;18301;51.076;17.046;2024-01-10T12:13:17;165.35;;;57.05;;
31716;SDS011;18301;51.076;17.046;2024-01-10T12:18:19;161.50;;;57.85;;
31716;SDS011;18301;51.076;17.046;2024-01-10T12:23:22;165.00;;;59.90;;
31716;SDS011;18301;51.076;17.046;2024-01-10T12:28:24;167.75;;;61.53;;
31716;SDS011;18301;51.076;17.046;2024-01-10T12:33:26;155.20;;;56.58;;
31716;SDS011;18301;51.076;17.046;2024-01-10T12:38:28;147.77;;;53.28;;
31716;SDS011;18301;51.076;17.046;2024-01-10T12:43:30;181.13;;;61.95;;
31716;SDS011;18301;51.076;17.046;2024-01-10T12:48:35;183.85;;;63.03;;
31716;SDS011;18301;51.076;17.046;2024-01-10T12:53:43;188.25;;;65.85;;
31716;SDS011;18301;51.076;17.046;2024-01-10T12:58:45;185.00;;;65.35;;
31716;SDS011;18301;51.076;17.046;2024-01-10T13:03:46;171.05;;;62.22;;
31716;SDS011;18301;51.076;17.046;2024-01-10T13:08:50;171.57;;;59.10;;
31716;SDS011;18301;51.076;17.046;2024-01-10T13:13:51;156.13;;;56.10;;
31716;SDS011;18301;51.076;17.046;2024-01-10T13:18:53;172.93;;;60.33;;
31716;SDS011;18301;51.076;17.046;2024-01-10T13:23:56;193.38;;;67.00;;
31716;SDS011;18301;51.076;17.046;2024-01-10T13:28:57;172.85;;;60.30;;
31716;SDS011;18301;51.076;17.046;2024-01-10T13:33:59;171.73;;;61.97;;
31716;SDS011;18301;51.076;17.046;2024-01-10T13:39:01;168.65;;;59.38;;
31716;SDS011;18301;51.076;17.046;2024-01-10T13:44:05;165.88;;;57.45;;
31716;SDS011;18301;51.076;17.046;2024-01-10T13:49:06;154.95;;;58.67;;
31716;SDS011;18301;51.076;17.046;2024-01-10T13:54:08;167.57;;;61.72;;
31716;SDS011;18301;51.076;17.046;2024-01-10T13:59:10;200.80;;;67.97;;
31716;SDS011;18301;51.076;17.046;2024-01-10T14:10:19;175.65;;;58.50;;
31716;SDS011;18301;51.076;17.046;2024-01-10T14:15:21;213.43;;;71.10;;
31716;SDS011;18301;51.076;17.046;2024-01-10T14:20:22;218.85;;;75.18;;
31716;SDS011;18301;51.076;17.046;2024-01-10T14:25:24;208.23;;;71.60;;
31716;SDS011;18301;51.076;17.046;2024-01-10T14:30:27;213.93;;;78.70;;
31716;SDS011;18301;51.076;17.046;2024-01-10T14:35:29;215.60;;;75.93;;
31716;SDS011;18301;51.076;17.046;2024-01-10T14:40:31;214.77;;;74.03;;
31716;SDS011;18301;51.076;17.046;2024-01-10T14:45:32;215.55;;;74.60;;
31716;SDS011;18301;51.076;17.046;2024-01-10T14:50:34;202.18;;;73.72;;
31716;SDS011;18301;51.076;17.046;2024-01-10T14:55:36;207.43;;;74.80;;
31716;SDS011;18301;51.076;17.046;2024-01-10T15:00:38;213.18;;;74.50;;
31716;SDS011;18301;51.076;17.046;2024-01-10T15:05:42;205.10;;;71.57;;
31716;SDS011;18301;51.076;17.046;2024-01-10T15:10:44;209.48;;;74.32;;
31716;SDS011;18301;51.076;17.046;2024-01-10T15:15:46;212.57;;;74.00;;
31716;SDS011;18301;51.076;17.046;2024-01-10T15:20:48;203.50;;;73.05;;
31716;SDS011;18301;51.076;17.046;2024-01-10T15:25:50;235.73;;;75.18;;
31716;SDS011;18301;51.076;17.046;2024-01-10T15:30:51;223.98;;;76.20;;
31716;SDS011;18301;51.076;17.046;2024-01-10T15:35:53;254.30;;;85.50;;
31716;SDS011;18301;51.076;17.046;2024-01-10T15:40:56;237.20;;;82.03;;
31716;SDS011;18301;51.076;17.046;2024-01-10T15:46:00;234.82;;;78.97;;
31716;SDS011;18301;51.076;17.046;2024-01-10T15:51:02;242.27;;;83.13;;
31716;SDS011;18301;51.076;17.046;2024-01-10T15:56:04;222.32;;;80.18;;
31716;SDS011;18301;51.076;17.046;2024-01-10T16:01:06;241.55;;;83.70;;
31716;SDS011;18301;51.076;17.046;2024-01-10T16:06:08;241.85;;;87.38;;
31716;SDS011;18301;51.076;17.046;2024-01-10T16:11:11;250.88;;;88.75;;
31716;SDS011;18301;51.076;17.046;2024-01-10T16:16:13;269.30;;;89.70;;
31716;SDS011;18301;51.076;17.046;2024-01-10T16:21:15;263.20;;;90.88;;
31716;SDS011;18301;51.076;17.046;2024-01-10T16:26:16;271.88;;;93.03;;
31716;SDS011;18301;51.076;17.046;2024-01-10T16:31:18;256.77;;;91.80;;
31716;SDS011;18301;51.076;17.046;2024-01-10T16:36:20;260.33;;;90.10;;
31716;SDS011;18301;51.076;17.046;2024-01-10T16:41:21;262.88;;;91.15;;
31716;SDS011;18301;51.076;17.046;2024-01-10T16:46:23;264.50;;;90.75;;
31716;SDS011;18301;51.076;17.046;2024-01-10T16:51:25;270.92;;;94.60;;
31716;SDS011;18301;51.076;17.046;2024-01-10T16:56:27;253.85;;;89.43;;
31716;SDS011;18301;51.076;17.046;2024-01-10T17:01:29;277.08;;;93.95;;
31716;SDS011;18301;51.076;17.046;2024-01-10T17:06:31;282.15;;;99.82;;
31716;SDS011;18301;51.076;17.046;2024-01-10T17:11:33;286.23;;;101.15;;
31716;SDS011;18301;51.076;17.046;2024-01-10T17:16:35;274.25;;;96.63;;
31716;SDS011;18301;51.076;17.046;2024-01-10T17:21:37;283.35;;;97.22;;
31716;SDS011;18301;51.076;17.046;2024-01-10T17:26:39;280.60;;;94.82;;
31716;SDS011;18301;51.076;17.046;2024-01-10T17:31:43;287.95;;;98.72;;
31716;SDS011;18301;51.076;17.046;2024-01-10T17:36:44;284.52;;;97.65;;
31716;SDS011;18301;51.076;17.046;2024-01-10T17:41:46;281.02;;;96.60;;
31716;SDS011;18301;51.076;17.046;2024-01-10T17:46:48;280.55;;;96.45;;
31716;SDS011;18301;51.076;17.046;2024-01-10T17:51:50;293.10;;;102.40;;
31716;SDS011;18301;51.076;17.046;2024-01-10T17:56:51;286.52;;;104.68;;
31716;SDS011;18301;51.076;17.046;2024-01-10T18:01:53;294.98;;;105.93;;
31716;SDS011;18301;51.076;17.046;2024-01-10T18:06:56;292.10;;;105.20;;
31716;SDS011;18301;51.076;17.046;2024-01-10T18:11:57;310.67;;;109.50;;
31716;SDS011;18301;51.076;17.046;2024-01-10T18:17:00;321.65;;;114.78;;
31716;SDS011;18301;51.076;17.046;2024-01-10T18:22:03;344.65;;;117.20;;
31716;SDS011;18301;51.076;17.046;2024-01-10T18:27:04;362.52;;;123.75;;
31716;SDS011;18301;51.076;17.046;2024-01-10T18:32:06;342.13;;;124.28;;
31716;SDS011;18301;51.076;17.046;2024-01-10T18:37:08;349.20;;;120.70;;
31716;SDS011;18301;51.076;17.046;2024-01-10T18:42:09;304.35;;;106.13;;
31716;SDS011;18301;51.076;17.046;2024-01-10T18:47:13;305.73;;;110.53;;
31716;SDS011;18301;51.076;17.046;2024-01-10T18:52:14;301.83;;;108.03;;
31716;SDS011;18301;51.076;17.046;2024-01-10T18:57:16;327.52;;;116.68;;
31716;SDS011;18301;51.076;17.046;2024-01-10T19:02:19;308.30;;;111.53;;
31716;SDS011;18301;51.076;17.046;2024-01-10T19:07:21;323.92;;;112.43;;
31716;SDS011;18301;51.076;17.046;2024-01-10T19:12:23;330.27;;;115.20;;
31716;SDS011;18301;51.076;17.046;2024-01-10T19:17:24;317.02;;;112.65;;
31716;SDS011;18301;51.076;17.046;2024-01-10T19:22:26;316.13;;;108.47;;
31716;SDS011;18301;51.076;17.046;2024-01-10T19:27:28;302.80;;;104.93;;
31716;SDS011;18301;51.076;17.046;2024-01-10T19:32:29;300.17;;;106.38;;
31716;SDS011;18301;51.076;17.046;2024-01-10T19:37:31;316.90;;;107.28;;
31716;SDS011;18301;51.076;17.046;2024-01-10T19:42:33;306.38;;;109.18;;
31716;SDS011;18301;51.076;17.046;2024-01-10T19:47:34;322.95;;;110.82;;
31716;SDS011;18301;51.076;17.046;2024-01-10T19:52:36;314.45;;;111.93;;
31716;SDS011;18301;51.076;17.046;2024-01-10T19:57:38;320.55;;;112.13;;
31716;SDS011;18301;51.076;17.046;2024-01-10T20:02:40;326.10;;;113.15;;
31716;SDS011;18301;51.076;17.046;2024-01-10T20:07:42;342.92;;;116.90;;
31716;SDS011;18301;51.076;17.046;2024-01-10T20:12:43;348.48;;;119.45;;
31716;SDS011;18301;51.076;17.046;2024-01-10T20:17:45;349.33;;;120.63;;
31716;SDS011;18301;51.076;17.046;2024-01-10T20:22:47;358.77;;;120.88;;
31716;SDS011;18301;51.076;17.046;2024-01-10T20:27:49;373.40;;;124.80;;
31716;SDS011;18301;51.076;17.046;2024-01-10T20:32:51;414.05;;;132.50;;
31716;SDS011;18301;51.076;17.046;2024-01-10T20:37:54;436.67;;;143.23;;
31716;SDS011;18301;51.076;17.046;2024-01-10T20:42:58;439.45;;;139.68;;
31716;SDS011;18301;51.076;17.046;2024-01-10T20:47:59;435.13;;;134.00;;
31716;SDS011;18301;51.076;17.046;2024-01-10T20:53:02;406.98;;;131.45;;
31716;SDS011;18301;51.076;17.046;2024-01-10T20:58:04;409.67;;;135.20;;
31716;SDS011;18301;51.076;17.046;2024-01-10T21:03:06;396.33;;;133.07;;
31716;SDS011;18301;51.076;17.046;2024-01-10T21:08:07;385.48;;;130.50;;
31716;SDS011;18301;51.076;17.046;2024-01-10T21:13:09;405.77;;;133.18;;
31716;SDS011;18301;51.076;17.046;2024-01-10T21:18:11;411.75;;;133.80;;
31716;SDS011;18301;51.076;17.046;2024-01-10T21:23:16;411.20;;;133.73;;
31716;SDS011;18301;51.076;17.046;2024-01-10T21:28:18;408.30;;;134.90;;
31716;SDS011;18301;51.076;17.046;2024-01-10T21:33:20;416.55;;;134.32;;
31716;SDS011;18301;51.076;17.046;2024-01-10T21:38:22;378.13;;;125.65;;
31716;SDS011;18301;51.076;17.046;2024-01-10T21:43:24;394.48;;;127.00;;
31716;SDS011;18301;51.076;17.046;2024-01-10T21:48:25;401.55;;;129.63;;
31716;SDS011;18301;51.076;17.046;2024-01-10T21:53:27;371.38;;;125.97;;
31716;SDS011;18301;51.076;17.046;2024-01-10T21:58:29;354.63;;;121.35;;
31716;SDS011;18301;51.076;17.046;2024-01-10T22:03:30;372.45;;;125.95;;
31716;SDS011;18301;51.076;17.046;2024-01-10T22:08:36;339.58;;;117.72;;
31716;SDS011;18301;51.076;17.046;2024-01-10T22:13:39;344.92;;;115.80;;
31716;SDS011;18301;51.076;17.046;2024-01-10T22:18:41;350.20;;;120.63;;
31716;SDS011;18301;51.076;17.046;2024-01-10T22:23:43;333.50;;;111.28;;
31716;SDS011;18301;51.076;17.046;2024-01-10T22:28:45;343.88;;;114.00;;
31716;SDS011;18301;51.076;17.046;2024-01-10T22:33:46;332.38;;;113.30;;
31716;SDS011;18301;51.076;17.046;2024-01-10T22:38:48;324.88;;;110.40;;
31716;SDS011;18301;51.076;17.046;2024-01-10T22:43:50;321.98;;;107.72;;
31716;SDS011;18301;51.076;17.046;2024-01-10T22:48:52;340.58;;;113.63;;
31716;SDS011;18301;51.076;17.046;2024-01-10T22:53:53;314.65;;;110.15;;
31716;SDS011;18301;51.076;17.046;2024-01-10T22:58:55;323.05;;;110.38;;
31716;SDS011;18301;51.076;17.046;2024-01-10T23:03:57;316.48;;;107.85;;
31716;SDS011;18301;51.076;17.046;2024-01-10T23:08:58;319.17;;;106.40;;
31716;SDS011;18301;51.076;17.046;2024-01-10T23:14:00;324.75;;;107.18;;
31716;SDS011;18301;51.076;17.046;2024-01-10T23:19:02;316.58;;;106.70;;
31716;SDS011;18301;51.076;17.046;2024-01-10T23:24:04;327.27;;;105.70;;
31716;SDS011;18301;51.076;17.046;2024-01-10T23:29:08;315.02;;;110.70;;
31716;SDS011;18301;51.076;17.046;2024-01-10T23:34:10;336.23;;;113.13;;
31716;SDS011;18301;51.076;17.046;2024-01-10T23:39:14;330.30;;;118.78;;
31716;SDS011;18301;51.076;17.046;2024-01-10T23:44:16;358.98;;;118.47;;
31716;SDS011;18301;51.076;17.046;2024-01-10T23:49:18;352.95;;;118.65;;
31716;SDS011;18301;51.076;17.046;2024-01-10T23:54:20;364.35;;;121.45;;
31716;SDS011;18301;51.076;17.046;2024-01-10T23:59:21;351.75;;;113.95;;
